Aviation Digital Data Service (ADDS)

Output produced by METARs form (0344 UTC 23 November 2017)
found at http://www.aviationweather.gov/adds/metars/
 
EKYT 230320Z AUTO 19018KT 9999NDV FEW100/// BKN120/// 10/06 Q0990
TAF EKYT 230222Z 2303/2324 19015G25KT 9999 BKN120 
     TEMPO 2308/2316 19020G30KT 5000 -RA BKN012 
     BECMG 2318/2321 21015KT 
     TEMPO 2321/2324 21018G30KT 4000 SHRA SCT012CB
       
EKAH 230320Z AUTO 17008G19KT 130V210 9999NDV BKN150/// 09/06 Q0993
TAF EKAH 222305Z 2300/2324 20015KT 8000 SCT015 
     TEMPO 2315/2324 19018G30KT -RA BKN012
       
EKBI 230320Z AUTO 19017G27KT 9999NDV OVC110/// 10/05 Q0993
TAF EKBI 222305Z 2300/2324 20016KT 8000 SCT020 
     TEMPO 2312/2324 20020G32KT -RA BKN012
       
EKRN 230320Z AUTO 19014KT 9999NDV NCD 08/06 Q1003
EKEB 230320Z AUTO 17013KT 140V210 9999NDV OVC110/// 10/06 Q0992
EKKA 230340Z AUTO 19015G26KT 140V220 9999NDV BKN100/// 11/06 Q0990
TAF EKKA 230222Z 2303/2324 19015G28KT 9999 SCT015 
     TEMPO 2308/2316 19018G32KT 5000 -RA BKN012 
     BECMG 2316/2318 21015KT 
     TEMPO 2321/2324 21018G30KT 5000 -SHRA SCT012CB
       
EKCH 230320Z 20012KT CAVOK 08/06 Q0999 NOSIG
TAF EKCH 222305Z 2300/2324 20015KT 6000 SCT030 
     TEMPO 2318/2324 19018G30KT -RA BKN012
       
EKVD 230320Z AUTO 20018KT //// ///////// 11/05 Q0994
EKAH 230320Z AUTO 17008G19KT 130V210 9999NDV BKN150/// 09/06 Q0993
TAF EKAH 222305Z 2300/2324 20015KT 8000 SCT015 
     TEMPO 2315/2324 19018G30KT -RA BKN012
       
EKBI 230320Z AUTO 19017G27KT 9999NDV OVC110/// 10/05 Q0993
TAF EKBI 222305Z 2300/2324 20016KT 8000 SCT020 
     TEMPO 2312/2324 20020G32KT -RA BKN012
       
EKCH 230320Z 20012KT CAVOK 08/06 Q0999 NOSIG
TAF EKCH 222305Z 2300/2324 20015KT 6000 SCT030 
     TEMPO 2318/2324 19018G30KT -RA BKN012
       
EKEB 230320Z AUTO 17013KT 140V210 9999NDV OVC110/// 10/06 Q0992
EKKA 230340Z AUTO 19015G26KT 140V220 9999NDV BKN100/// 11/06 Q0990
TAF EKKA 230222Z 2303/2324 19015G28KT 9999 SCT015 
     TEMPO 2308/2316 19018G32KT 5000 -RA BKN012 
     BECMG 2316/2318 21015KT 
     TEMPO 2321/2324 21018G30KT 5000 -SHRA SCT012CB
       
EKRK 230320Z AUTO 19012KT 9999NDV NCD 08/04 Q0998
TAF EKRK 230220Z 2303/2312 20015KT 9999 SCT030
       
EKRN 230320Z AUTO 19014KT 9999NDV NCD 08/06 Q1003
EKSB 230320Z AUTO 18012G22KT 9999NDV NCD 10/04 Q0995
EKSP 230320Z 20017KT CAVOK 10/05 Q0994 RMK FEW110 BKN140
TAF EKSP 230222Z 2303/2324 20018G28KT 9999 SCT015 
     TEMPO 2309/2316 21022G35KT 5000 -RA BKN012 
     TEMPO 2321/2324 5000 -SHRA SCT012CB
       
EKVD 230320Z AUTO 20018KT //// ///////// 11/05 Q0994
EKVG 230320Z AUTO 36010KT 3600NDV -SN OVC010/// 01/01 Q0985 RMK VV010 WIND 850FT 01016G33KT 320V050
EKYT 230320Z AUTO 19018KT 9999NDV FEW100/// BKN120/// 10/06 Q0990
TAF EKYT 230222Z 2303/2324 19015G25KT 9999 BKN120 
     TEMPO 2308/2316 19020G30KT 5000 -RA BKN012 
     BECMG 2318/2321 21015KT 
     TEMPO 2321/2324 21018G30KT 4000 SHRA SCT012CB
       
EKRK 230320Z AUTO 19012KT 9999NDV NCD 08/04 Q0998
TAF EKRK 230220Z 2303/2312 20015KT 9999 SCT030
       
EKSP 230320Z 20017KT CAVOK 10/05 Q0994 RMK FEW110 BKN140
TAF EKSP 230222Z 2303/2324 20018G28KT 9999 SCT015 
     TEMPO 2309/2316 21022G35KT 5000 -RA BKN012 
     TEMPO 2321/2324 5000 -SHRA SCT012CB
       
EKSB 230320Z AUTO 18012G22KT 9999NDV NCD 10/04 Q0995